sensor_id;sensor_type;location;lat;lon;timestamp;pressure;altitude;pressure_sealevel;temperature;humidity
46690;BME280;32423;45.398;10.874;2023-12-14T00:02:12;99673.53;;;9.02;84.53
46690;BME280;32423;45.398;10.874;2023-12-14T00:05:04;99677.56;;;9.17;83.39
46690;BME280;32423;45.398;10.874;2023-12-14T00:08:04;99675.75;;;9.21;81.75
46690;BME280;32423;45.398;10.874;2023-12-14T00:10:59;99686.41;;;9.26;81.60
46690;BME280;32423;45.398;10.874;2023-12-14T00:13:57;99701.66;;;9.39;81.03
46690;BME280;32423;45.398;10.874;2023-12-14T00:16:46;99689.44;;;9.45;80.75
46690;BME280;32423;45.398;10.874;2023-12-14T00:19:41;99697.38;;;9.51;80.39
46690;BME280;32423;45.398;10.874;2023-12-14T00:22:33;99697.06;;;9.52;80.34
46690;BME280;32423;45.398;10.874;2023-12-14T00:25:27;99695.81;;;9.50;79.60
46690;BME280;32423;45.398;10.874;2023-12-14T00:28:20;99711.41;;;9.53;80.02
46690;BME280;32423;45.398;10.874;2023-12-14T00:31:14;99707.44;;;9.50;79.28
46690;BME280;32423;45.398;10.874;2023-12-14T00:34:08;99708.63;;;9.40;79.81
46690;BME280;32423;45.398;10.874;2023-12-14T00:37:00;99728.78;;;9.19;80.51
46690;BME280;32423;45.398;10.874;2023-12-14T00:39:52;99731.47;;;9.19;81.12
46690;BME280;32423;45.398;10.874;2023-12-14T00:42:47;99735.44;;;9.21;81.14
46690;BME280;32423;45.398;10.874;2023-12-14T00:45:36;99727.16;;;9.18;80.85
46690;BME280;32423;45.398;10.874;2023-12-14T00:48:28;99732.22;;;9.28;80.67
46690;BME280;32423;45.398;10.874;2023-12-14T00:51:20;99729.94;;;9.30;80.28
46690;BME280;32423;45.398;10.874;2023-12-14T00:54:15;99737.13;;;9.34;80.56
46690;BME280;32423;45.398;10.874;2023-12-14T00:57:12;99725.47;;;9.34;79.72
46690;BME280;32423;45.398;10.874;2023-12-14T01:00:07;99723.16;;;9.44;79.49
46690;BME280;32423;45.398;10.874;2023-12-14T01:02:59;99722.94;;;9.50;79.06
46690;BME280;32423;45.398;10.874;2023-12-14T01:05:55;99715.22;;;9.39;79.74
46690;BME280;32423;45.398;10.874;2023-12-14T01:08:47;99726.97;;;9.43;79.33
46690;BME280;32423;45.398;10.874;2023-12-14T01:11:39;99738.84;;;9.39;79.34
46690;BME280;32423;45.398;10.874;2023-12-14T01:14:31;99744.47;;;9.34;79.55
46690;BME280;32423;45.398;10.874;2023-12-14T01:17:23;99754.56;;;9.25;80.62
46690;BME280;32423;45.398;10.874;2023-12-14T01:20:15;99753.31;;;9.22;79.91
46690;BME280;32423;45.398;10.874;2023-12-14T01:23:09;99752.22;;;9.15;79.81
46690;BME280;32423;45.398;10.874;2023-12-14T01:26:04;99754.81;;;9.11;80.14
46690;BME280;32423;45.398;10.874;2023-12-14T01:28:56;99761.03;;;9.12;81.26
46690;BME280;32423;45.398;10.874;2023-12-14T01:31:48;99757.06;;;9.09;81.56
46690;BME280;32423;45.398;10.874;2023-12-14T01:34:43;99764.84;;;9.11;82.10
46690;BME280;32423;45.398;10.874;2023-12-14T01:37:40;99771.56;;;9.13;82.41
46690;BME280;32423;45.398;10.874;2023-12-14T01:40:32;99776.31;;;9.16;82.21
46690;BME280;32423;45.398;10.874;2023-12-14T01:43:24;99784.25;;;9.21;82.11
46690;BME280;32423;45.398;10.874;2023-12-14T01:46:18;99783.47;;;9.21;82.58
46690;BME280;32423;45.398;10.874;2023-12-14T01:49:10;99783.94;;;9.23;82.14
46690;BME280;32423;45.398;10.874;2023-12-14T01:52:05;99782.59;;;9.08;81.39
46690;BME280;32423;45.398;10.874;2023-12-14T01:54:59;99792.25;;;9.18;82.80
46690;BME280;32423;45.398;10.874;2023-12-14T01:57:54;99787.03;;;9.13;82.05
46690;BME280;32423;45.398;10.874;2023-12-14T02:01:08;99786.22;;;9.12;82.12
46690;BME280;32423;45.398;10.874;2023-12-14T02:04:03;99779.72;;;9.05;81.31
46690;BME280;32423;45.398;10.874;2023-12-14T02:06:56;99779.47;;;8.97;81.92
46690;BME280;32423;45.398;10.874;2023-12-14T02:09:47;99775.16;;;8.96;81.58
46690;BME280;32423;45.398;10.874;2023-12-14T02:12:42;99775.03;;;8.93;81.84
46690;BME280;32423;45.398;10.874;2023-12-14T02:15:37;99779.09;;;8.99;81.91
46690;BME280;32423;45.398;10.874;2023-12-14T02:18:31;99778.59;;;9.06;81.05
46690;BME280;32423;45.398;10.874;2023-12-14T02:21:26;99777.44;;;9.15;80.94
46690;BME280;32423;45.398;10.874;2023-12-14T02:24:20;99782.22;;;9.18;80.82
46690;BME280;32423;45.398;10.874;2023-12-14T02:27:12;99779.97;;;8.91;81.40
46690;BME280;32423;45.398;10.874;2023-12-14T02:30:08;99782.25;;;8.80;83.52
46690;BME280;32423;45.398;10.874;2023-12-14T02:33:02;99781.69;;;8.95;82.80
46690;BME280;32423;45.398;10.874;2023-12-14T02:36:00;99778.19;;;8.95;82.96
46690;BME280;32423;45.398;10.874;2023-12-14T02:38:52;99779.66;;;8.84;83.35
46690;BME280;32423;45.398;10.874;2023-12-14T02:41:47;99780.38;;;8.72;84.43
46690;BME280;32423;45.398;10.874;2023-12-14T02:44:41;99781.97;;;8.73;84.75
46690;BME280;32423;45.398;10.874;2023-12-14T02:47:36;99785.28;;;8.79;84.71
46690;BME280;32423;45.398;10.874;2023-12-14T02:50:31;99785.63;;;8.77;85.45
46690;BME280;32423;45.398;10.874;2023-12-14T02:53:25;99792.38;;;8.54;86.43
46690;BME280;32423;45.398;10.874;2023-12-14T02:56:25;99797.38;;;8.26;87.82
46690;BME280;32423;45.398;10.874;2023-12-14T02:59:17;99792.47;;;8.11;88.52
46690;BME280;32423;45.398;10.874;2023-12-14T03:02:12;99788.31;;;8.22;88.52
46690;BME280;32423;45.398;10.874;2023-12-14T03:05:06;99793.59;;;8.10;87.34
46690;BME280;32423;45.398;10.874;2023-12-14T03:07:58;99788.50;;;8.17;87.15
46690;BME280;32423;45.398;10.874;2023-12-14T03:10:50;99791.34;;;8.21;87.40
46690;BME280;32423;45.398;10.874;2023-12-14T03:13:45;99801.22;;;8.25;87.24
46690;BME280;32423;45.398;10.874;2023-12-14T03:16:39;99806.97;;;8.15;87.77
46690;BME280;32423;45.398;10.874;2023-12-14T03:19:34;99814.47;;;8.01;87.79
46690;BME280;32423;45.398;10.874;2023-12-14T03:22:29;99799.16;;;8.05;88.38
46690;BME280;32423;45.398;10.874;2023-12-14T03:25:21;99804.09;;;8.03;88.05
46690;BME280;32423;45.398;10.874;2023-12-14T03:28:16;99804.13;;;7.94;88.11
46690;BME280;32423;45.398;10.874;2023-12-14T03:31:12;99814.47;;;8.01;88.93
46690;BME280;32423;45.398;10.874;2023-12-14T03:34:07;99821.13;;;8.21;88.67
46690;BME280;32423;45.398;10.874;2023-12-14T03:36:59;99823.84;;;8.03;86.81
46690;BME280;32423;45.398;10.874;2023-12-14T03:39:53;99819.84;;;8.18;86.78
46690;BME280;32423;45.398;10.874;2023-12-14T03:42:48;99824.31;;;8.14;86.22
46690;BME280;32423;45.398;10.874;2023-12-14T03:45:43;99835.31;;;8.09;86.02
46690;BME280;32423;45.398;10.874;2023-12-14T03:48:35;99834.34;;;8.13;86.34
46690;BME280;32423;45.398;10.874;2023-12-14T03:51:27;99844.41;;;8.22;85.42
46690;BME280;32423;45.398;10.874;2023-12-14T03:54:21;99843.28;;;8.31;85.23
46690;BME280;32423;45.398;10.874;2023-12-14T03:57:16;99852.19;;;8.40;84.34
46690;BME280;32423;45.398;10.874;2023-12-14T04:00:09;99851.09;;;8.41;84.38
46690;BME280;32423;45.398;10.874;2023-12-14T04:03:04;99847.91;;;8.48;84.61
46690;BME280;32423;45.398;10.874;2023-12-14T04:05:59;99853.44;;;8.51;84.28
46690;BME280;32423;45.398;10.874;2023-12-14T04:08:53;99847.84;;;8.56;84.51
46690;BME280;32423;45.398;10.874;2023-12-14T04:11:48;99847.84;;;8.56;83.56
46690;BME280;32423;45.398;10.874;2023-12-14T04:14:43;99856.97;;;8.26;84.57
46690;BME280;32423;45.398;10.874;2023-12-14T04:17:37;99854.44;;;8.12;85.64
46690;BME280;32423;45.398;10.874;2023-12-14T04:20:32;99857.75;;;8.18;85.44
46690;BME280;32423;45.398;10.874;2023-12-14T04:23:24;99871.16;;;8.06;85.83
46690;BME280;32423;45.398;10.874;2023-12-14T04:26:18;99873.38;;;8.04;86.19
46690;BME280;32423;45.398;10.874;2023-12-14T04:29:11;99874.31;;;8.08;85.50
46690;BME280;32423;45.398;10.874;2023-12-14T04:32:00;99872.75;;;8.07;85.83
46690;BME280;32423;45.398;10.874;2023-12-14T04:34:55;99873.06;;;7.97;86.58
46690;BME280;32423;45.398;10.874;2023-12-14T04:37:45;99865.44;;;7.90;87.20
46690;BME280;32423;45.398;10.874;2023-12-14T04:40:39;99869.41;;;7.84;87.71
46690;BME280;32423;45.398;10.874;2023-12-14T04:43:29;99882.63;;;7.94;87.57
46690;BME280;32423;45.398;10.874;2023-12-14T04:46:24;99885.78;;;7.88;87.23
46690;BME280;32423;45.398;10.874;2023-12-14T04:49:16;99889.94;;;7.94;86.52
46690;BME280;32423;45.398;10.874;2023-12-14T04:52:10;99896.16;;;7.94;84.60
46690;BME280;32423;45.398;10.874;2023-12-14T04:55:02;99878.31;;;7.85;83.04
46690;BME280;32423;45.398;10.874;2023-12-14T04:57:54;99891.03;;;7.76;81.96
46690;BME280;32423;45.398;10.874;2023-12-14T05:00:49;99901.22;;;7.79;82.35
46690;BME280;32423;45.398;10.874;2023-12-14T05:03:41;99911.28;;;7.87;80.88
46690;BME280;32423;45.398;10.874;2023-12-14T05:06:33;99906.66;;;7.96;79.99
46690;BME280;32423;45.398;10.874;2023-12-14T05:09:27;99913.53;;;8.02;78.43
46690;BME280;32423;45.398;10.874;2023-12-14T05:12:22;99911.13;;;8.00;78.10
46690;BME280;32423;45.398;10.874;2023-12-14T05:15:17;99914.63;;;8.01;77.66
46690;BME280;32423;45.398;10.874;2023-12-14T05:18:16;99920.97;;;7.79;78.14
46690;BME280;32423;45.398;10.874;2023-12-14T05:21:11;99929.88;;;7.80;76.65
46690;BME280;32423;45.398;10.874;2023-12-14T05:24:10;99931.44;;;7.63;77.38
46690;BME280;32423;45.398;10.874;2023-12-14T05:27:04;99936.69;;;7.68;76.72
46690;BME280;32423;45.398;10.874;2023-12-14T05:29:57;99937.50;;;7.60;76.59
46690;BME280;32423;45.398;10.874;2023-12-14T05:32:51;99937.56;;;7.38;77.49
46690;BME280;32423;45.398;10.874;2023-12-14T05:35:46;99947.41;;;7.25;78.82
46690;BME280;32423;45.398;10.874;2023-12-14T05:38:38;99938.94;;;7.27;77.21
46690;BME280;32423;45.398;10.874;2023-12-14T05:41:34;99948.59;;;7.11;77.81
46690;BME280;32423;45.398;10.874;2023-12-14T05:44:34;99951.78;;;7.13;79.35
46690;BME280;32423;45.398;10.874;2023-12-14T05:47:27;99954.72;;;6.94;79.02
46690;BME280;32423;45.398;10.874;2023-12-14T05:50:19;99956.47;;;6.99;77.84
46690;BME280;32423;45.398;10.874;2023-12-14T05:53:14;99958.25;;;7.03;77.69
46690;BME280;32423;45.398;10.874;2023-12-14T05:56:11;99957.38;;;6.85;76.78
46690;BME280;32423;45.398;10.874;2023-12-14T05:59:06;99963.03;;;6.75;78.72
46690;BME280;32423;45.398;10.874;2023-12-14T06:02:01;99966.88;;;6.83;80.63
46690;BME280;32423;45.398;10.874;2023-12-14T06:04:55;99979.84;;;6.72;77.73
46690;BME280;32423;45.398;10.874;2023-12-14T06:07:50;99989.59;;;6.82;77.85
46690;BME280;32423;45.398;10.874;2023-12-14T06:10:42;100001.16;;;6.74;76.89
46690;BME280;32423;45.398;10.874;2023-12-14T06:13:42;100005.81;;;6.82;76.37
46690;BME280;32423;45.398;10.874;2023-12-14T06:16:36;100019.88;;;6.70;76.29
46690;BME280;32423;45.398;10.874;2023-12-14T06:19:31;100029.41;;;6.90;76.35
46690;BME280;32423;45.398;10.874;2023-12-14T06:22:25;100028.22;;;7.05;75.30
46690;BME280;32423;45.398;10.874;2023-12-14T06:25:20;100025.53;;;7.05;74.30
46690;BME280;32423;45.398;10.874;2023-12-14T06:28:20;100043.47;;;7.01;75.26
46690;BME280;32423;45.398;10.874;2023-12-14T06:31:17;100040.69;;;6.92;74.90
46690;BME280;32423;45.398;10.874;2023-12-14T06:34:08;100048.97;;;6.73;75.24
46690;BME280;32423;45.398;10.874;2023-12-14T06:37:00;100052.38;;;6.43;76.87
46690;BME280;32423;45.398;10.874;2023-12-14T06:39:55;100059.00;;;6.23;79.27
46690;BME280;32423;45.398;10.874;2023-12-14T06:42:47;100053.59;;;6.10;80.56
46690;BME280;32423;45.398;10.874;2023-12-14T06:45:37;100055.22;;;6.11;80.41
46690;BME280;32423;45.398;10.874;2023-12-14T06:48:27;100047.41;;;6.23;80.01
46690;BME280;32423;45.398;10.874;2023-12-14T06:51:22;100052.78;;;6.36;79.34
46690;BME280;32423;45.398;10.874;2023-12-14T06:54:14;100051.31;;;6.17;77.69
46690;BME280;32423;45.398;10.874;2023-12-14T06:57:06;100064.31;;;6.15;79.93
46690;BME280;32423;45.398;10.874;2023-12-14T07:00:01;100073.50;;;6.27;79.03
46690;BME280;32423;45.398;10.874;2023-12-14T07:02:53;100075.41;;;6.27;79.00
46690;BME280;32423;45.398;10.874;2023-12-14T07:05:48;100072.03;;;6.08;78.59
46690;BME280;32423;45.398;10.874;2023-12-14T07:08:43;100071.84;;;6.04;79.87
46690;BME280;32423;45.398;10.874;2023-12-14T07:11:35;100074.09;;;6.11;78.17
46690;BME280;32423;45.398;10.874;2023-12-14T07:14:29;100080.00;;;6.26;78.36
46690;BME280;32423;45.398;10.874;2023-12-14T07:17:24;100088.38;;;6.25;77.33
46690;BME280;32423;45.398;10.874;2023-12-14T07:20:19;100103.38;;;6.31;78.17
46690;BME280;32423;45.398;10.874;2023-12-14T07:23:11;100111.06;;;6.51;76.52
46690;BME280;32423;45.398;10.874;2023-12-14T07:26:05;100115.88;;;6.40;76.00
46690;BME280;32423;45.398;10.874;2023-12-14T07:28:58;100114.25;;;6.53;74.56
46690;BME280;32423;45.398;10.874;2023-12-14T07:31:50;100119.78;;;6.48;74.76
46690;BME280;32423;45.398;10.874;2023-12-14T07:34:45;100127.97;;;6.43;75.68
46690;BME280;32423;45.398;10.874;2023-12-14T07:37:39;100131.16;;;6.45;75.07
46690;BME280;32423;45.398;10.874;2023-12-14T07:40:34;100129.81;;;6.34;76.36
46690;BME280;32423;45.398;10.874;2023-12-14T07:43:26;100136.41;;;6.28;77.55
46690;BME280;32423;45.398;10.874;2023-12-14T07:46:21;100140.00;;;6.23;77.95
46690;BME280;32423;45.398;10.874;2023-12-14T07:49:18;100141.78;;;6.41;77.76
46690;BME280;32423;45.398;10.874;2023-12-14T07:52:11;100154.56;;;6.63;78.51
46690;BME280;32423;45.398;10.874;2023-12-14T07:55:02;100151.53;;;6.78;77.61
46690;BME280;32423;45.398;10.874;2023-12-14T07:57:55;100166.75;;;6.74;77.27
46690;BME280;32423;45.398;10.874;2023-12-14T08:00:47;100186.38;;;6.80;77.36
46690;BME280;32423;45.398;10.874;2023-12-14T08:03:41;100188.06;;;6.76;77.17
46690;BME280;32423;45.398;10.874;2023-12-14T08:06:36;100192.38;;;6.63;78.96
46690;BME280;32423;45.398;10.874;2023-12-14T08:09:31;100194.97;;;6.68;79.55
46690;BME280;32423;45.398;10.874;2023-12-14T08:12:23;100205.19;;;6.71;79.27
46690;BME280;32423;45.398;10.874;2023-12-14T08:15:18;100195.97;;;6.72;79.90
46690;BME280;32423;45.398;10.874;2023-12-14T08:18:10;100187.28;;;6.75;79.84
46690;BME280;32423;45.398;10.874;2023-12-14T08:21:02;100201.34;;;7.00;78.74
46690;BME280;32423;45.398;10.874;2023-12-14T08:23:56;100205.16;;;6.99;79.72
46690;BME280;32423;45.398;10.874;2023-12-14T08:26:51;100211.16;;;6.96;79.17
46690;BME280;32423;45.398;10.874;2023-12-14T08:29:46;100215.97;;;6.99;79.49
46690;BME280;32423;45.398;10.874;2023-12-14T08:32:40;100225.47;;;6.96;79.95
46690;BME280;32423;45.398;10.874;2023-12-14T08:35:35;100237.34;;;7.09;80.93
46690;BME280;32423;45.398;10.874;2023-12-14T08:38:30;100238.97;;;7.10;80.60
46690;BME280;32423;45.398;10.874;2023-12-14T08:41:22;100247.34;;;7.22;80.04
46690;BME280;32423;45.398;10.874;2023-12-14T08:44:17;100250.72;;;7.27;79.22
46690;BME280;32423;45.398;10.874;2023-12-14T08:47:11;100260.16;;;7.30;79.81
46690;BME280;32423;45.398;10.874;2023-12-14T08:50:09;100262.34;;;7.28;79.67
46690;BME280;32423;45.398;10.874;2023-12-14T08:53:01;100262.34;;;7.28;79.96
46690;BME280;32423;45.398;10.874;2023-12-14T08:56:01;100264.13;;;7.32;80.57
46690;BME280;32423;45.398;10.874;2023-12-14T08:58:55;100272.88;;;7.29;81.29
46690;BME280;32423;45.398;10.874;2023-12-14T09:01:51;100279.56;;;7.32;81.55
46690;BME280;32423;45.398;10.874;2023-12-14T09:04:45;100283.41;;;7.31;81.57
46690;BME280;32423;45.398;10.874;2023-12-14T09:07:37;100284.19;;;7.18;82.75
46690;BME280;32423;45.398;10.874;2023-12-14T09:10:32;100289.03;;;7.07;84.51
46690;BME280;32423;45.398;10.874;2023-12-14T09:13:24;100292.22;;;7.09;85.01
46690;BME280;32423;45.398;10.874;2023-12-14T09:16:14;100295.03;;;7.18;85.28
46690;BME280;32423;45.398;10.874;2023-12-14T09:19:01;100295.03;;;7.18;84.82
46690;BME280;32423;45.398;10.874;2023-12-14T09:21:56;100288.50;;;7.19;85.28
46690;BME280;32423;45.398;10.874;2023-12-14T09:24:51;100300.59;;;7.35;85.37
46690;BME280;32423;45.398;10.874;2023-12-14T09:27:44;100301.19;;;7.46;84.88
46690;BME280;32423;45.398;10.874;2023-12-14T09:30:36;100322.97;;;7.63;84.38
46690;BME280;32423;45.398;10.874;2023-12-14T09:33:28;100326.00;;;7.61;83.14
46690;BME280;32423;45.398;10.874;2023-12-14T09:36:22;100331.38;;;7.75;84.15
46690;BME280;32423;45.398;10.874;2023-12-14T09:39:15;100330.50;;;7.66;84.59
46690;BME280;32423;45.398;10.874;2023-12-14T09:42:18;100323.09;;;7.58;85.71
46690;BME280;32423;45.398;10.874;2023-12-14T09:45:13;100320.84;;;7.73;85.70
46690;BME280;32423;45.398;10.874;2023-12-14T09:48:05;100327.22;;;7.78;85.16
46690;BME280;32423;45.398;10.874;2023-12-14T09:51:03;100324.78;;;7.90;83.81
46690;BME280;32423;45.398;10.874;2023-12-14T09:53:58;100335.50;;;7.95;83.08
46690;BME280;32423;45.398;10.874;2023-12-14T09:56:50;100334.69;;;7.94;83.52
46690;BME280;32423;45.398;10.874;2023-12-14T09:59:52;100346.50;;;7.98;83.66
46690;BME280;32423;45.398;10.874;2023-12-14T10:02:47;100344.69;;;8.07;84.08
46690;BME280;32423;45.398;10.874;2023-12-14T10:05:41;100345.13;;;8.01;83.87
46690;BME280;32423;45.398;10.874;2023-12-14T10:08:36;100348.50;;;8.06;84.25
46690;BME280;32423;45.398;10.874;2023-12-14T10:11:28;100345.47;;;8.08;83.76
46690;BME280;32423;45.398;10.874;2023-12-14T10:14:21;100344.25;;;8.14;84.00
46690;BME280;32423;45.398;10.874;2023-12-14T10:17:25;100344.63;;;8.21;83.26
46690;BME280;32423;45.398;10.874;2023-12-14T10:20:23;100344.78;;;8.25;83.08
46690;BME280;32423;45.398;10.874;2023-12-14T10:23:21;100347.34;;;8.21;83.11
46690;BME280;32423;45.398;10.874;2023-12-14T10:26:16;100353.63;;;8.30;84.08
46690;BME280;32423;45.398;10.874;2023-12-14T10:29:11;100351.91;;;8.34;83.39
46690;BME280;32423;45.398;10.874;2023-12-14T10:32:06;100356.38;;;8.39;83.62
46690;BME280;32423;45.398;10.874;2023-12-14T10:34:59;100352.56;;;8.40;84.46
46690;BME280;32423;45.398;10.874;2023-12-14T10:37:52;100354.34;;;8.44;84.26
46690;BME280;32423;45.398;10.874;2023-12-14T10:40:45;100350.25;;;8.47;83.74
46690;BME280;32423;45.398;10.874;2023-12-14T10:43:44;100353.06;;;8.42;84.84
46690;BME280;32423;45.398;10.874;2023-12-14T10:46:37;100358.03;;;8.48;84.56
46690;BME280;32423;45.398;10.874;2023-12-14T10:49:29;100366.66;;;8.50;84.18
46690;BME280;32423;45.398;10.874;2023-12-14T10:52:22;100361.38;;;8.45;84.91
46690;BME280;32423;45.398;10.874;2023-12-14T10:55:21;100371.00;;;8.51;84.34
46690;BME280;32423;45.398;10.874;2023-12-14T10:58:15;100374.75;;;8.42;84.60
46690;BME280;32423;45.398;10.874;2023-12-14T11:01:11;100375.06;;;8.40;84.74
46690;BME280;32423;45.398;10.874;2023-12-14T11:04:08;100384.50;;;8.29;86.27
46690;BME280;32423;45.398;10.874;2023-12-14T11:07:06;100389.44;;;8.27;86.71
46690;BME280;32423;45.398;10.874;2023-12-14T11:09:58;100395.25;;;7.98;86.79
46690;BME280;32423;45.398;10.874;2023-12-14T11:13:02;100390.53;;;8.04;87.46
46690;BME280;32423;45.398;10.874;2023-12-14T11:15:55;100393.78;;;8.14;87.94
46690;BME280;32423;45.398;10.874;2023-12-14T11:18:49;100392.19;;;8.13;88.03
46690;BME280;32423;45.398;10.874;2023-12-14T11:22:25;100391.63;;;8.03;87.57
46690;BME280;32423;45.398;10.874;2023-12-14T11:25:20;100395.97;;;7.90;88.39
46690;BME280;32423;45.398;10.874;2023-12-14T11:28:13;100397.59;;;7.91;87.78
46690;BME280;32423;45.398;10.874;2023-12-14T11:31:05;100407.16;;;7.75;89.14
46690;BME280;32423;45.398;10.874;2023-12-14T11:34:02;100399.84;;;7.76;88.45
46690;BME280;32423;45.398;10.874;2023-12-14T11:36:57;100413.72;;;7.83;88.46
46690;BME280;32423;45.398;10.874;2023-12-14T11:39:52;100412.63;;;7.84;88.59
46690;BME280;32423;45.398;10.874;2023-12-14T11:42:46;100409.63;;;7.85;89.23
46690;BME280;32423;45.398;10.874;2023-12-14T11:45:48;100405.53;;;7.74;89.83
46690;BME280;32423;45.398;10.874;2023-12-14T11:48:46;100410.53;;;7.81;90.81
46690;BME280;32423;45.398;10.874;2023-12-14T11:51:40;100404.03;;;7.82;91.36
46690;BME280;32423;45.398;10.874;2023-12-14T11:54:30;100406.75;;;7.82;91.70
46690;BME280;32423;45.398;10.874;2023-12-14T11:57:22;100403.91;;;7.87;92.04
46690;BME280;32423;45.398;10.874;2023-12-14T12:00:17;100404.00;;;7.95;92.68
46690;BME280;32423;45.398;10.874;2023-12-14T12:03:17;100399.16;;;8.06;92.18
46690;BME280;32423;45.398;10.874;2023-12-14T12:06:24;100391.13;;;8.01;92.03
46690;BME280;32423;45.398;10.874;2023-12-14T12:09:34;100391.94;;;8.01;92.32
46690;BME280;32423;45.398;10.874;2023-12-14T12:12:24;100390.03;;;8.02;91.45
46690;BME280;32423;45.398;10.874;2023-12-14T12:15:16;100393.00;;;8.14;92.27
46690;BME280;32423;45.398;10.874;2023-12-14T12:18:10;100399.47;;;8.27;92.60
46690;BME280;32423;45.398;10.874;2023-12-14T12:21:05;100401.34;;;8.40;92.44
46690;BME280;32423;45.398;10.874;2023-12-14T12:24:00;100405.59;;;8.54;91.63
46690;BME280;32423;45.398;10.874;2023-12-14T12:26:54;100399.59;;;8.66;90.59
46690;BME280;32423;45.398;10.874;2023-12-14T12:29:47;100409.56;;;8.79;90.89
46690;BME280;32423;45.398;10.874;2023-12-14T12:32:39;100417.88;;;8.83;90.31
46690;BME280;32423;45.398;10.874;2023-12-14T12:35:39;100424.50;;;8.99;90.19
46690;BME280;32423;45.398;10.874;2023-12-14T12:38:34;100427.06;;;9.04;90.15
46690;BME280;32423;45.398;10.874;2023-12-14T12:41:26;100423.75;;;9.07;89.80
46690;BME280;32423;45.398;10.874;2023-12-14T12:44:20;100416.16;;;9.18;90.40
46690;BME280;32423;45.398;10.874;2023-12-14T12:47:15;100412.84;;;9.29;90.44
46690;BME280;32423;45.398;10.874;2023-12-14T12:50:10;100403.44;;;9.35;90.11
46690;BME280;32423;45.398;10.874;2023-12-14T12:53:02;100409.72;;;9.62;89.50
46690;BME280;32423;45.398;10.874;2023-12-14T12:55:57;100406.28;;;10.04;88.68
46690;BME280;32423;45.398;10.874;2023-12-14T12:58:51;100402.47;;;10.40;87.14
46690;BME280;32423;45.398;10.874;2023-12-14T13:01:45;100400.03;;;10.64;85.73
46690;BME280;32423;45.398;10.874;2023-12-14T13:04:40;100394.84;;;10.88;84.26
46690;BME280;32423;45.398;10.874;2023-12-14T13:07:34;100401.66;;;11.11;83.03
46690;BME280;32423;45.398;10.874;2023-12-14T13:10:34;100397.69;;;11.38;81.43
46690;BME280;32423;45.398;10.874;2023-12-14T13:13:29;100398.47;;;11.39;81.19
46690;BME280;32423;45.398;10.874;2023-12-14T13:16:23;100396.00;;;11.25;82.34
46690;BME280;32423;45.398;10.874;2023-12-14T13:19:18;100396.59;;;11.31;82.51
46690;BME280;32423;45.398;10.874;2023-12-14T13:22:12;100404.84;;;11.43;82.20
46690;BME280;32423;45.398;10.874;2023-12-14T13:25:02;100402.25;;;11.55;81.72
46690;BME280;32423;45.398;10.874;2023-12-14T13:27:54;100404.72;;;11.69;81.31
46690;BME280;32423;45.398;10.874;2023-12-14T13:30:49;100409.03;;;11.78;80.62
46690;BME280;32423;45.398;10.874;2023-12-14T13:33:41;100410.69;;;11.91;80.64
46690;BME280;32423;45.398;10.874;2023-12-14T13:36:36;100425.97;;;12.05;80.28
46690;BME280;32423;45.398;10.874;2023-12-14T13:39:30;100417.16;;;12.08;80.01
46690;BME280;32423;45.398;10.874;2023-12-14T13:42:25;100424.47;;;12.16;79.50
46690;BME280;32423;45.398;10.874;2023-12-14T13:45:20;100417.34;;;12.23;79.23
46690;BME280;32423;45.398;10.874;2023-12-14T13:48:12;100414.69;;;12.15;79.62
46690;BME280;32423;45.398;10.874;2023-12-14T13:51:04;100422.72;;;12.32;78.73
46690;BME280;32423;45.398;10.874;2023-12-14T13:53:56;100417.94;;;12.29;77.81
46690;BME280;32423;45.398;10.874;2023-12-14T13:56:48;100426.47;;;12.27;77.44
46690;BME280;32423;45.398;10.874;2023-12-14T13:59:44;100427.91;;;12.25;77.75
46690;BME280;32423;45.398;10.874;2023-12-14T14:02:39;100436.56;;;12.27;76.89
46690;BME280;32423;45.398;10.874;2023-12-14T14:05:31;100434.56;;;12.36;77.02
46690;BME280;32423;45.398;10.874;2023-12-14T14:08:23;100448.09;;;12.44;76.94
46690;BME280;32423;45.398;10.874;2023-12-14T14:11:14;100443.81;;;12.43;76.19
46690;BME280;32423;45.398;10.874;2023-12-14T14:14:09;100447.59;;;12.84;73.60
46690;BME280;32423;45.398;10.874;2023-12-14T14:16:59;100456.84;;;12.71;73.70
46690;BME280;32423;45.398;10.874;2023-12-14T14:19:51;100457.63;;;12.59;74.37
46690;BME280;32423;45.398;10.874;2023-12-14T14:22:46;100464.22;;;12.58;74.31
46690;BME280;32423;45.398;10.874;2023-12-14T14:25:38;100471.91;;;12.56;74.19
46690;BME280;32423;45.398;10.874;2023-12-14T14:28:32;100487.25;;;12.49;74.85
46690;BME280;32423;45.398;10.874;2023-12-14T14:31:24;100478.19;;;12.36;74.22
46690;BME280;32423;45.398;10.874;2023-12-14T14:34:19;100492.09;;;12.43;74.53
46690;BME280;32423;45.398;10.874;2023-12-14T14:37:14;100504.66;;;12.35;74.28
46690;BME280;32423;45.398;10.874;2023-12-14T14:40:11;100502.88;;;12.19;73.37
46690;BME280;32423;45.398;10.874;2023-12-14T14:43:03;100514.44;;;11.86;75.22
46690;BME280;32423;45.398;10.874;2023-12-14T14:45:55;100517.03;;;11.74;75.86
46690;BME280;32423;45.398;10.874;2023-12-14T14:48:45;100524.97;;;11.50;76.89
46690;BME280;32423;45.398;10.874;2023-12-14T14:51:39;100525.81;;;11.42;77.66
46690;BME280;32423;45.398;10.874;2023-12-14T14:54:34;100527.34;;;11.98;79.45
46690;BME280;32423;45.398;10.874;2023-12-14T14:57:29;100534.44;;;12.40;72.50
46690;BME280;32423;45.398;10.874;2023-12-14T15:00:24;100533.63;;;11.90;74.40
46690;BME280;32423;45.398;10.874;2023-12-14T15:03:19;100543.03;;;11.54;75.26
46690;BME280;32423;45.398;10.874;2023-12-14T15:06:13;100538.34;;;11.64;75.62
46690;BME280;32423;45.398;10.874;2023-12-14T15:09:06;100549.88;;;11.69;74.89
46690;BME280;32423;45.398;10.874;2023-12-14T15:12:02;100550.91;;;11.56;73.45
46690;BME280;32423;45.398;10.874;2023-12-14T15:14:56;100554.59;;;11.43;73.86